Time;durP1;ratioP1;P1;durP2;ratioP2;P2;SDS_P1;SDS_P2;PMS_P1;PMS_P2;Temp;Humidity;BMP_temperature;BMP_pressure;BME280_temperature;BME280_humidity;BME280_pressure;Samples;Min_cycle;Max_cycle;Signal;HPM_P1;HPM_P2
2022/05/03 00:02:13;;;;;;;1.30;0.77;;;9.10;81.30;;;;;;4902546;28;20058;-83
2022/05/03 00:05:09;;;;;;;2.17;0.80;;;9.00;81.70;;;;;;4932878;28;20027;-85
2022/05/03 00:08:10;;;;;;;1.05;0.52;;;9.00;82.00;;;;;;4949391;28;20038;-85
2022/05/03 00:10:59;;;;;;;1.20;0.52;;;9.00;82.10;;;;;;4930649;28;20047;-84
2022/05/03 00:13:31;;;;;;;1.30;0.50;;;8.90;81.90;;;;;;4903446;28;20047;-84
2022/05/03 00:16:04;;;;;;;1.60;0.70;;;8.90;82.00;;;;;;4914584;28;20035;-84
2022/05/03 00:18:33;;;;;;;1.13;0.50;;;8.90;82.10;;;;;;4915021;29;20051;-85
2022/05/03 00:21:09;;;;;;;3.17;0.82;;;8.90;82.40;;;;;;4946036;28;20035;-84
2022/05/03 00:23:40;;;;;;;1.25;0.60;;;8.90;82.70;;;;;;4951420;28;20688;-85
2022/05/03 00:26:07;;;;;;;1.67;0.63;;;8.90;82.90;;;;;;4949489;28;20035;-85
2022/05/03 00:28:41;;;;;;;3.72;0.80;;;8.80;82.90;;;;;;4932337;28;20050;-85
2022/05/03 00:31:48;;;;;;;0.98;0.60;;;8.80;83.30;;;;;;4933195;28;20042;-86
2022/05/03 00:34:24;;;;;;;3.40;0.88;;;8.80;83.80;;;;;;4948418;28;20039;-85
2022/05/03 00:36:53;;;;;;;3.20;0.77;;;8.70;83.70;;;;;;4930430;28;20478;-84
2022/05/03 00:39:25;;;;;;;2.08;0.80;;;8.70;84.00;;;;;;4947556;28;21296;-85
2022/05/03 00:42:10;;;;;;;1.42;0.93;;;8.70;84.30;;;;;;4933327;28;20039;-85
2022/05/03 00:45:04;;;;;;;1.65;0.98;;;8.60;84.80;;;;;;4935130;28;20035;-85
2022/05/03 00:48:07;;;;;;;2.60;0.95;;;8.60;85.10;;;;;;4913702;28;20040;-85
2022/05/03 00:50:44;;;;;;;1.97;0.90;;;8.60;85.50;;;;;;4935622;28;20507;-84
2022/05/03 00:53:27;;;;;;;1.73;0.90;;;8.50;85.60;;;;;;4911778;29;20468;-85
2022/05/03 00:56:02;;;;;;;2.33;0.93;;;8.50;86.10;;;;;;4928431;28;20028;-84
2022/05/03 00:59:01;;;;;;;3.03;1.33;;;8.40;86.20;;;;;;4930878;28;20043;-84
2022/05/03 01:01:55;;;;;;;1.67;1.00;;;8.40;87.00;;;;;;4934327;28;20028;-85
2022/05/03 01:04:32;;;;;;;1.83;0.73;;;8.30;87.10;;;;;;4948049;28;20062;-84
2022/05/03 01:07:26;;;;;;;2.25;1.00;;;8.30;87.30;;;;;;4901079;28;20054;-84
2022/05/03 01:10:03;;;;;;;3.08;1.10;;;8.20;88.10;;;;;;4943942;28;20043;-84
2022/05/03 01:12:53;;;;;;;2.20;1.08;;;8.20;88.20;;;;;;4934634;29;20039;-85
2022/05/03 01:15:26;;;;;;;2.10;0.90;;;8.20;88.80;;;;;;4932740;28;20038;-84
2022/05/03 01:18:24;;;;;;;3.42;1.17;;;8.20;89.50;;;;;;4915236;28;20058;-85
2022/05/03 01:21:18;;;;;;;1.60;0.80;;;8.10;89.30;;;;;;4929065;28;20042;-85
2022/05/03 01:24:13;;;;;;;1.90;0.77;;;8.10;89.60;;;;;;4928516;28;20510;-84
2022/05/03 01:27:11;;;;;;;5.05;1.13;;;8.00;90.10;;;;;;4915505;28;20035;-84
2022/05/03 01:29:40;;;;;;;1.95;1.00;;;7.90;90.20;;;;;;4913677;28;20023;-84
2022/05/03 01:32:09;;;;;;;1.67;0.80;;;7.90;90.30;;;;;;4935309;28;20031;-85
2022/05/03 01:34:40;;;;;;;1.77;0.93;;;7.90;90.50;;;;;;4932565;28;20054;-84
2022/05/03 01:37:33;;;;;;;3.57;0.90;;;7.80;90.60;;;;;;4932308;28;20410;-84
2022/05/03 01:40:11;;;;;;;2.63;1.15;;;7.80;90.80;;;;;;4942760;28;20039;-85
2022/05/03 01:42:44;;;;;;;2.47;1.20;;;7.80;90.90;;;;;;4919210;28;20035;-84
2022/05/03 01:45:36;;;;;;;2.03;1.33;;;7.80;91.20;;;;;;4915756;28;20031;-86
2022/05/03 01:51:31;;;;;;;2.35;1.20;;;7.70;91.70;;;;;;4929041;29;20039;-84
2022/05/03 01:54:09;;;;;;;;;;;7.70;91.80;;;;;;4916216;28;20027;-84
2022/05/03 01:57:00;;;;;;;1.92;0.90;;;7.70;92.00;;;;;;4932644;28;19921;-83
2022/05/03 01:59:40;;;;;;;3.10;1.60;;;7.60;92.10;;;;;;4914677;28;20031;-84
2022/05/03 02:02:20;;;;;;;4.72;1.80;;;7.60;92.40;;;;;;4901217;28;20043;-84
2022/05/03 02:05:06;;;;;;;2.33;1.20;;;7.60;92.60;;;;;;4902032;28;20031;-84
2022/05/03 02:07:52;;;;;;;2.40;1.50;;;7.60;92.70;;;;;;4915865;28;20051;-84
2022/05/03 02:10:38;;;;;;;4.10;1.83;;;7.60;92.90;;;;;;4931494;28;20042;-85
2022/05/03 02:13:28;;;;;;;2.83;1.63;;;7.60;93.20;;;;;;4915228;28;20035;-84
2022/05/03 02:16:07;;;;;;;4.18;2.03;;;7.60;93.30;;;;;;4932610;28;20041;-83
2022/05/03 02:18:52;;;;;;;3.10;1.95;;;7.60;93.40;;;;;;4932732;28;20040;-85
2022/05/03 02:21:25;;;;;;;3.13;1.88;;;7.60;93.70;;;;;;4949579;28;20027;-83
2022/05/03 02:23:59;;;;;;;3.38;1.83;;;7.60;93.80;;;;;;4918566;28;20491;-84
2022/05/03 02:27:09;;;;;;;4.13;2.05;;;7.60;93.80;;;;;;4917014;28;20050;-84
2022/05/03 02:29:45;;;;;;;4.03;2.50;;;7.60;94.00;;;;;;4888408;28;20042;-83
2022/05/03 02:32:15;;;;;;;5.22;2.13;;;7.60;94.10;;;;;;4910654;28;20044;-84
2022/05/03 02:35:03;;;;;;;4.80;2.65;;;7.60;94.30;;;;;;4938021;28;20031;-84
2022/05/03 02:37:57;;;;;;;4.03;2.35;;;7.50;94.70;;;;;;4915295;28;20035;-84
2022/05/03 02:40:29;;;;;;;;;;;7.50;95.00;;;;;;4924087;29;20035;-84
2022/05/03 02:42:57;;;;;;;3.22;1.40;;;7.40;95.00;;;;;;4910764;29;19949;-84
2022/05/03 02:45:24;;;;;;;2.75;1.75;;;7.40;95.00;;;;;;4923152;29;20016;-84
2022/05/03 02:48:06;;;;;;;3.17;1.88;;;7.30;95.30;;;;;;4925762;28;20406;-84
2022/05/03 02:50:59;;;;;;;2.38;1.55;;;7.30;95.70;;;;;;4924385;28;20468;-85
2022/05/03 02:53:51;;;;;;;4.35;1.95;;;7.30;96.00;;;;;;4895231;29;20072;-85
2022/05/03 02:56:41;;;;;;;3.07;1.90;;;7.20;96.40;;;;;;4897801;28;20031;-84
2022/05/03 03:02:45;;;;;;;3.38;2.00;;;7.10;96.70;;;;;;4929235;28;20047;-84
2022/05/03 03:05:17;;;;;;;2.75;1.50;;;7.10;97.10;;;;;;4917796;28;20410;-84
2022/05/03 03:07:51;;;;;;;4.25;1.92;;;7.00;97.00;;;;;;4902179;29;20034;-85
2022/05/03 03:10:22;;;;;;;2.75;1.70;;;7.00;97.20;;;;;;4901455;29;20034;-85
2022/05/03 03:13:01;;;;;;;4.78;1.83;;;7.00;97.40;;;;;;4934098;28;20027;-85
2022/05/03 03:15:29;;;;;;;3.95;2.10;;;7.00;97.60;;;;;;4915375;29;20036;-85
2022/05/03 03:18:00;;;;;;;3.83;2.10;;;7.00;97.70;;;;;;4916850;28;20050;-85
2022/05/03 03:20:30;;;;;;;4.72;2.10;;;7.00;97.90;;;;;;4932380;29;20116;-84
2022/05/03 03:22:59;;;;;;;;;;;7.00;98.10;;;;;;4932969;28;20486;-85
2022/05/03 03:25:26;;;;;;;3.95;2.65;;;7.00;98.10;;;;;;4919158;29;19929;-84
2022/05/03 03:27:54;;;;;;;3.55;1.73;;;7.00;98.00;;;;;;4931921;28;20045;-85
2022/05/03 03:30:28;;;;;;;4.55;2.58;;;7.10;98.30;;;;;;4912163;28;20066;-84
2022/05/03 03:32:56;;;;;;;5.45;2.30;;;7.00;98.50;;;;;;4949985;28;20039;-85
2022/05/03 03:35:27;;;;;;;4.43;2.35;;;7.00;98.50;;;;;;4947509;28;20039;-85
2022/05/03 03:38:13;;;;;;;4.82;2.40;;;7.00;98.60;;;;;;4936336;29;20035;-85
2022/05/03 03:40:48;;;;;;;4.07;1.92;;;7.00;98.70;;;;;;4918478;29;20031;-85
2022/05/03 03:43:21;;;;;;;4.83;2.50;;;7.00;98.80;;;;;;4916569;28;20031;-85
2022/05/03 03:45:50;;;;;;;;;;;7.00;99.00;;;;;;4916470;29;20031;-85
2022/05/03 03:48:29;;;;;;;3.67;2.10;;;7.00;99.20;;;;;;4946111;28;20359;-85
2022/05/03 03:51:02;;;;;;;6.78;2.72;;;7.00;99.20;;;;;;4931121;29;20042;-86
2022/05/03 03:53:37;;;;;;;5.30;2.38;;;7.00;99.40;;;;;;4943289;28;20038;-85
2022/05/03 03:56:46;;;;;;;4.35;3.00;;;6.90;99.50;;;;;;4912722;28;20506;-85
2022/05/03 03:59:32;;;;;;;;;;;;;;;;;;;;;
2022/05/03 04:02:05;;;;;;;3.75;2.90;;;6.80;99.90;;;;;;4935391;28;20519;-88
2022/05/03 04:04:45;;;;;;;4.30;2.58;;;6.80;99.90;;;;;;4925607;28;20499;-88
2022/05/03 04:07:19;;;;;;;4.63;2.60;;;6.80;99.90;;;;;;4936877;28;20054;-88
2022/05/03 04:10:19;;;;;;;5.55;3.25;;;6.70;99.90;;;;;;4896086;29;20049;-87
2022/05/03 04:12:55;;;;;;;4.57;2.03;;;6.70;99.90;;;;;;4907405;29;20144;-88
2022/05/03 04:15:37;;;;;;;4.70;3.07;;;6.70;99.90;;;;;;4899595;29;20215;-88
2022/05/03 04:21:28;;;;;;;3.83;3.03;;;6.70;99.90;;;;;;4876145;29;20040;-88
2022/05/03 04:23:57;;;;;;;4.95;3.05;;;6.80;99.90;;;;;;4895244;29;20036;-87
2022/05/03 04:26:24;;;;;;;7.07;3.67;;;6.80;99.90;;;;;;4891765;29;20040;-88
2022/05/03 04:28:56;;;;;;;7.35;3.08;;;6.80;99.90;;;;;;4891685;29;20041;-88
2022/05/03 04:31:32;;;;;;;4.53;3.17;;;6.90;99.90;;;;;;4901020;29;20397;-86
2022/05/03 04:34:01;;;;;;;5.95;2.78;;;6.90;99.90;;;;;;4860247;29;20036;-87
2022/05/03 04:36:29;;;;;;;4.93;3.50;;;6.80;99.90;;;;;;4876957;29;20043;-87
2022/05/03 04:38:56;;;;;;;4.63;2.50;;;6.90;99.90;;;;;;4878044;29;20055;-87
2022/05/03 04:41:23;;;;;;;5.97;3.50;;;6.90;99.90;;;;;;4877969;29;20043;-87
2022/05/03 04:43:52;;;;;;;6.15;3.00;;;6.90;99.90;;;;;;4904849;29;20040;-88
2022/05/03 04:46:20;;;;;;;5.78;3.00;;;6.90;99.90;;;;;;4889290;29;20055;-85
2022/05/03 04:48:47;;;;;;;4.78;3.30;;;6.90;99.90;;;;;;4874128;29;20045;-86
2022/05/03 04:51:21;;;;;;;5.00;2.97;;;7.00;99.90;;;;;;4859172;29;20039;-86
2022/05/03 04:53:48;;;;;;;5.68;3.25;;;7.00;99.90;;;;;;4889509;29;20044;-86
2022/05/03 04:56:17;;;;;;;3.65;2.60;;;7.00;99.90;;;;;;4930895;28;20483;-87
2022/05/03 04:58:44;;;;;;;5.60;2.40;;;7.00;99.90;;;;;;4949309;28;20040;-87
2022/05/03 05:01:11;;;;;;;4.35;3.03;;;7.20;99.90;;;;;;4921289;28;20151;-87
2022/05/03 05:03:41;;;;;;;4.10;2.75;;;7.40;99.90;;;;;;4924216;28;20062;-88
2022/05/03 05:06:09;;;;;;;5.60;2.70;;;7.50;99.90;;;;;;4938633;29;20019;-86
2022/05/03 05:08:41;;;;;;;7.18;2.97;;;7.50;99.90;;;;;;4899723;29;20035;-86
2022/05/03 05:11:09;;;;;;;3.35;2.35;;;7.60;99.90;;;;;;4914814;29;20035;-86
2022/05/03 05:13:36;;;;;;;4.80;2.95;;;7.60;99.90;;;;;;4921924;28;20050;-88
2022/05/03 05:16:05;;;;;;;3.53;2.35;;;7.70;99.90;;;;;;4915150;28;20038;-88
2022/05/03 05:18:31;;;;;;;8.30;3.42;;;7.70;99.90;;;;;;4928263;28;20070;-89
2022/05/03 05:20:58;;;;;;;5.45;3.40;;;7.80;99.90;;;;;;4918379;28;20032;-82
2022/05/03 05:23:49;;;;;;;4.78;2.78;;;7.90;99.90;;;;;;4913866;28;20036;-83
2022/05/03 05:26:16;;;;;;;6.03;3.00;;;8.00;99.90;;;;;;4951052;28;20042;-90
2022/05/03 05:28:53;;;;;;;7.22;4.05;;;8.10;99.90;;;;;;4902779;28;20620;-88
2022/05/03 05:32:16;;;;;;;7.82;4.93;;;8.20;99.90;;;;;;4934118;28;20586;-88
2022/05/03 05:35:09;;;;;;;7.45;4.70;;;8.40;99.90;;;;;;4929817;28;20039;-84
2022/05/03 05:37:59;;;;;;;5.22;3.67;;;8.60;99.90;;;;;;4935753;28;20030;-89
2022/05/03 05:41:06;;;;;;;8.10;4.45;;;8.80;99.90;;;;;;4922528;28;20035;-89
2022/05/03 05:44:04;;;;;;;4.80;2.97;;;9.00;99.90;;;;;;4934399;28;20511;-90
2022/05/03 05:46:38;;;;;;;4.88;3.13;;;9.30;99.90;;;;;;4920045;28;20027;-89
2022/05/03 05:49:15;;;;;;;4.55;2.40;;;9.50;99.90;;;;;;4918404;28;20057;-83
2022/05/03 05:55:14;;;;;;;3.95;2.20;;;9.80;99.90;;;;;;4931338;28;20039;-89
2022/05/03 05:57:49;;;;;;;3.50;2.63;;;10.00;99.90;;;;;;4919469;28;20505;-88
2022/05/03 06:00:17;;;;;;;3.95;1.75;;;10.20;99.90;;;;;;4927671;28;20058;-85
2022/05/03 06:02:53;;;;;;;4.78;2.10;;;10.40;99.90;;;;;;4896188;29;20138;-89
2022/05/03 06:05:21;;;;;;;5.65;2.70;;;10.60;99.90;;;;;;4913017;29;20492;-85
2022/05/03 06:08:00;;;;;;;17.88;10.40;;;10.80;99.90;;;;;;4902100;29;20056;-87
2022/05/03 06:10:33;;;;;;;10.45;6.40;;;11.00;99.90;;;;;;4895106;29;20064;-83
2022/05/03 06:13:29;;;;;;;4.13;2.58;;;11.30;99.80;;;;;;4895277;29;20074;-87
2022/05/03 06:16:28;;;;;;;2.97;1.55;;;11.50;99.30;;;;;;4929336;29;20055;-77
2022/05/03 06:19:02;;;;;;;2.42;1.08;;;11.80;98.40;;;;;;4907328;29;20055;-87
2022/05/03 06:21:32;;;;;;;8.48;5.15;;;11.90;97.80;;;;;;4880420;29;20039;-87
2022/05/03 06:23:59;;;;;;;8.18;6.20;;;12.10;97.50;;;;;;4913903;29;20400;-86
2022/05/03 06:26:32;;;;;;;5.38;2.47;;;12.30;96.90;;;;;;4863164;29;20051;-86
2022/05/03 06:29:06;;;;;;;2.88;1.52;;;12.60;96.30;;;;;;4911828;29;20043;-86
2022/05/03 06:31:55;;;;;;;2.38;0.90;;;13.00;95.50;;;;;;4907223;29;20048;-86
2022/05/03 06:34:38;;;;;;;2.42;0.80;;;13.30;94.90;;;;;;4880889;29;20480;-91
2022/05/03 06:37:06;;;;;;;1.73;0.60;;;13.50;94.00;;;;;;4911821;29;20039;-86
2022/05/03 06:39:41;;;;;;;1.20;0.70;;;13.60;93.20;;;;;;4896043;29;20043;-84
2022/05/03 06:42:25;;;;;;;1.20;0.63;;;13.80;93.00;;;;;;4926074;29;20043;-85
2022/05/03 06:44:59;;;;;;;2.50;0.60;;;14.10;92.60;;;;;;4896757;29;20484;-85
2022/05/03 06:48:06;;;;;;;1.67;0.50;;;14.50;91.20;;;;;;4892796;29;20035;-86
2022/05/03 06:52:03;;;;;;;;;;;;;;;;;;;;;
2022/05/03 06:55:11;;;;;;;1.20;0.60;;;15.00;87.00;;;;;;4880347;29;20050;-86
2022/05/03 07:02:03;;;;;;;;;;;;;;;;;;;;;
2022/05/03 07:04:53;;;;;;;;;;;;;;;;;;;;;
2022/05/03 07:08:44;;;;;;;4.70;1.30;;;15.40;82.70;;;;;;4882315;29;20044;-86
2022/05/03 07:15:42;;;;;;;1.92;1.25;;;15.60;81.70;;;;;;4826890;29;20049;-86
2022/05/03 07:23:17;;;;;;;6.03;1.65;;;15.90;80.70;;;;;;4840842;29;20056;-86
2022/05/03 07:26:07;;;;;;;3.25;1.55;;;16.00;79.30;;;;;;4842588;29;20038;-85
2022/05/03 07:28:35;;;;;;;5.65;2.80;;;16.00;79.40;;;;;;4834478;29;20037;-85
2022/05/03 07:31:04;;;;;;;4.57;2.20;;;16.00;78.40;;;;;;4819264;29;20402;-81
2022/05/03 07:33:32;;;;;;;4.63;2.58;;;16.00;78.60;;;;;;4889414;29;20042;-82
2022/05/03 07:35:58;;;;;;;2.70;1.98;;;16.00;78.50;;;;;;4878022;29;20027;-82
2022/05/03 07:38:28;;;;;;;3.53;1.85;;;16.00;78.70;;;;;;4875970;29;20059;-81
2022/05/03 07:40:56;;;;;;;5.45;2.78;;;16.10;79.00;;;;;;4902318;29;20035;-81
2022/05/03 07:43:23;;;;;;;3.08;2.00;;;16.20;78.20;;;;;;4890168;29;20016;-81
2022/05/03 07:45:52;;;;;;;2.92;1.60;;;16.30;78.30;;;;;;4891577;29;20475;-81
2022/05/03 07:48:20;;;;;;;3.50;1.70;;;16.30;78.10;;;;;;4891894;29;20023;-81
2022/05/03 07:50:47;;;;;;;3.42;2.20;;;16.50;78.20;;;;;;4895529;29;20039;-81
2022/05/03 07:53:14;;;;;;;4.70;2.60;;;16.60;78.00;;;;;;4875624;29;20034;-81
2022/05/03 07:55:44;;;;;;;3.75;2.35;;;16.70;77.40;;;;;;4911996;29;20042;-81
2022/05/03 07:58:10;;;;;;;4.43;1.73;;;16.80;77.40;;;;;;4896347;29;20441;-81
2022/05/03 08:00:37;;;;;;;3.47;2.42;;;16.80;77.60;;;;;;4878377;29;20035;-81
2022/05/03 08:03:03;;;;;;;3.70;2.78;;;17.00;77.20;;;;;;4922523;28;20031;-82
2022/05/03 08:05:30;;;;;;;4.38;2.40;;;17.00;77.80;;;;;;4931094;28;20030;-81
2022/05/03 08:08:06;;;;;;;3.95;2.45;;;17.10;77.10;;;;;;4915251;29;20023;-82
2022/05/03 08:10:33;;;;;;;3.78;2.25;;;17.10;76.90;;;;;;4924910;28;20050;-82
2022/05/03 08:12:59;;;;;;;4.88;3.03;;;17.30;76.60;;;;;;4915146;28;20022;-82
2022/05/03 08:15:29;;;;;;;3.33;2.83;;;17.40;76.40;;;;;;4933325;28;20067;-81
2022/05/03 08:17:55;;;;;;;2.95;1.95;;;17.50;75.90;;;;;;4913651;28;20050;-81
2022/05/03 08:20:25;;;;;;;3.33;2.15;;;17.60;75.80;;;;;;4927441;28;20043;-81
2022/05/03 08:23:11;;;;;;;5.05;3.08;;;17.70;75.60;;;;;;4929684;28;20026;-82
2022/05/03 08:25:41;;;;;;;5.93;4.20;;;17.80;75.40;;;;;;4911787;28;20522;-81
2022/05/03 08:28:11;;;;;;;5.47;3.10;;;17.90;74.80;;;;;;4914755;28;20027;-81
2022/05/03 08:30:40;;;;;;;4.30;2.97;;;17.90;75.00;;;;;;4910210;28;20058;-87
2022/05/03 08:33:11;;;;;;;3.58;2.90;;;17.90;75.00;;;;;;4912412;28;20491;-87
2022/05/03 08:35:41;;;;;;;5.18;2.83;;;17.90;75.10;;;;;;4943126;28;20480;-88
2022/05/03 08:43:46;;;;;;;4.20;2.97;;;18.30;74.70;;;;;;4931294;28;20048;-87
2022/05/03 08:46:19;;;;;;;3.70;3.28;;;18.50;74.60;;;;;;4914728;28;20039;-90
2022/05/03 08:50:18;;;;;;;;;;;;;;;;;;;;;
2022/05/03 08:53:57;;;;;;;6.72;5.38;;;18.80;73.90;;;;;;4928508;28;20031;-88
2022/05/03 08:56:45;;;;;;;6.85;4.90;;;18.90;73.30;;;;;;4867893;28;20035;-86
2022/05/03 09:02:54;;;;;;;4.63;3.25;;;18.90;73.80;;;;;;4834115;29;20037;-91
2022/05/03 09:06:21;;;;;;;5.70;3.63;;;18.90;73.60;;;;;;4830990;29;20041;-90
2022/05/03 09:09:02;;;;;;;4.65;4.10;;;18.90;73.70;;;;;;4828166;29;20056;-87
2022/05/03 09:11:48;;;;;;;4.45;3.65;;;18.90;73.40;;;;;;4833997;29;20410;-82
2022/05/03 09:15:48;;;;;;;4.65;3.60;;;19.10;73.30;;;;;;4833328;29;20413;-89
2022/05/03 09:17:58;;;;;;;9.00;5.03;;;19.30;72.90;;;;;;4852353;29;20064;-84
2022/05/03 09:24:01;;;;;;;7.72;6.30;;;19.40;72.50;;;;;;4906761;29;20031;-80
2022/05/03 09:26:33;;;;;;;4.85;4.40;;;19.40;72.10;;;;;;4909537;29;20392;-81
2022/05/03 09:29:11;;;;;;;8.40;7.55;;;19.40;72.40;;;;;;4928170;29;20023;-81
2022/05/03 09:31:47;;;;;;;7.57;4.80;;;19.50;72.00;;;;;;4892880;29;20043;-81
2022/05/03 09:34:30;;;;;;;5.85;3.85;;;19.50;72.30;;;;;;4925910;29;20033;-79
2022/05/03 09:37:05;;;;;;;6.40;3.75;;;19.60;72.20;;;;;;4924096;29;20032;-80
2022/05/03 09:43:05;;;;;;;6.38;4.00;;;19.70;71.60;;;;;;4908449;29;20024;-81
2022/05/03 09:45:46;;;;;;;6.53;5.65;;;19.70;71.90;;;;;;4911467;29;20045;-81
2022/05/03 09:48:15;;;;;;;5.93;3.80;;;19.60;71.60;;;;;;4919983;29;20372;-82
2022/05/03 09:50:52;;;;;;;6.45;4.05;;;19.60;72.10;;;;;;4908092;29;20046;-86
2022/05/03 09:54:26;;;;;;;5.63;3.67;;;19.70;72.20;;;;;;4883173;29;20488;-86
2022/05/03 09:57:22;;;;;;;;;;;;;;;;;;;;;
2022/05/03 09:59:54;;;;;;;8.30;4.10;;;19.70;72.00;;;;;;4924334;29;20390;-86
2022/05/03 10:02:57;;;;;;;5.35;3.75;;;19.70;72.40;;;;;;4889503;29;20036;-88
2022/05/03 10:05:47;;;;;;;7.60;4.85;;;19.70;72.70;;;;;;4893448;29;20043;-87
2022/05/03 10:08:51;;;;;;;5.68;4.65;;;19.80;73.00;;;;;;4878619;29;20070;-88
2022/05/03 10:11:26;;;;;;;4.55;3.22;;;20.00;73.20;;;;;;4891083;29;20048;-88
2022/05/03 10:14:00;;;;;;;3.30;3.00;;;20.00;73.00;;;;;;4895046;29;20028;-87
2022/05/03 10:22:39;;;;;;;8.57;5.07;;;20.80;71.80;;;;;;4909429;29;20046;-89
2022/05/03 10:25:08;;;;;;;8.93;6.55;;;21.00;70.50;;;;;;4893667;29;20456;-86
2022/05/03 10:27:55;;;;;;;7.13;5.47;;;21.10;70.20;;;;;;4878355;29;20553;-88
2022/05/03 10:30:28;;;;;;;6.90;4.93;;;21.20;70.00;;;;;;4888944;29;20039;-87
2022/05/03 10:33:19;;;;;;;5.90;3.88;;;21.20;69.50;;;;;;4911319;29;20054;-87
2022/05/03 10:35:50;;;;;;;7.15;4.05;;;21.30;69.50;;;;;;4894483;29;20031;-86
2022/05/03 10:38:39;;;;;;;5.50;4.63;;;21.30;69.60;;;;;;4910225;29;20028;-86
2022/05/03 10:41:09;;;;;;;7.53;5.75;;;21.40;69.30;;;;;;4908006;29;20056;-86
2022/05/03 10:43:37;;;;;;;10.57;8.00;;;21.30;69.00;;;;;;4926445;29;20022;-86
2022/05/03 10:46:12;;;;;;;7.00;5.38;;;21.20;69.10;;;;;;4917534;29;20032;-86
2022/05/03 10:48:43;;;;;;;5.40;4.75;;;21.20;69.30;;;;;;4910209;29;20046;-86
2022/05/03 10:51:12;;;;;;;7.05;6.25;;;21.10;68.60;;;;;;4894291;29;20030;-85
2022/05/03 10:53:41;;;;;;;6.45;4.80;;;21.10;68.70;;;;;;4910111;29;20028;-81
2022/05/03 10:56:19;;;;;;;5.57;4.97;;;21.10;68.90;;;;;;4879491;29;20032;-81
2022/05/03 10:59:12;;;;;;;6.32;4.72;;;21.20;69.50;;;;;;4904940;29;20502;-84
2022/05/03 11:06:26;;;;;;;4.80;3.53;;;22.30;68.00;;;;;;4888793;29;20039;-83
2022/05/03 11:09:40;;;;;;;3.95;3.13;;;23.30;66.80;;;;;;4921439;29;20024;-82
2022/05/03 11:13:17;;;;;;;3.47;2.47;;;23.80;64.10;;;;;;4864432;29;20529;-82
2022/05/03 11:16:24;;;;;;;2.50;2.17;;;23.70;62.30;;;;;;4835206;29;20048;-84
2022/05/03 11:18:52;;;;;;;2.28;1.88;;;23.40;61.60;;;;;;4801794;29;20050;-89
2022/05/03 11:21:33;;;;;;;5.57;2.05;;;23.70;61.80;;;;;;4859378;29;20048;-90
2022/05/03 11:24:23;;;;;;;2.72;1.73;;;24.50;60.60;;;;;;4881160;29;20050;-90
2022/05/03 11:27:14;;;;;;;7.50;6.68;;;25.00;57.80;;;;;;4896662;29;20035;-88
2022/05/03 11:30:04;;;;;;;5.00;3.53;;;25.00;55.70;;;;;;4911262;29;20055;-88
2022/05/03 11:32:57;;;;;;;6.30;5.45;;;24.40;55.80;;;;;;4880981;29;20052;-86
2022/05/03 11:35:48;;;;;;;4.68;4.25;;;23.60;57.40;;;;;;4902226;29;20380;-85
2022/05/03 11:38:30;;;;;;;5.13;4.32;;;22.90;59.40;;;;;;4921760;29;20050;-86
2022/05/03 11:41:14;;;;;;;8.60;7.68;;;22.30;61.00;;;;;;4911804;29;20058;-86
2022/05/03 11:44:03;;;;;;;7.65;6.65;;;21.90;62.30;;;;;;4926489;29;20028;-84
2022/05/03 11:47:13;;;;;;;;;;;;;;;;;;;;;
2022/05/03 11:49:49;;;;;;;5.88;4.72;;;21.20;64.10;;;;;;4907106;29;20036;-82
2022/05/03 11:56:11;;;;;;;5.68;3.45;;;21.00;65.40;;;;;;4911625;29;20373;-83
2022/05/03 11:59:45;;;;;;;3.88;3.47;;;22.40;64.90;;;;;;4877229;29;20059;-83
2022/05/03 12:03:37;;;;;;;3.60;2.92;;;24.30;62.70;;;;;;4925303;28;20038;-83
2022/05/03 12:06:23;;;;;;;4.10;3.72;;;26.40;59.30;;;;;;4898070;29;20373;-84
2022/05/03 12:22:15;;;;;;;13.40;11.32;;;22.90;59.80;;;;;;4886683;29;20056;-83
2022/05/03 12:24:49;;;;;;;9.50;8.38;;;21.80;62.30;;;;;;4812332;29;20435;-83
2022/05/03 12:28:39;;;;;;;9.43;7.70;;;21.50;63.30;;;;;;4774316;29;20055;-84
2022/05/03 12:31:12;;;;;;;13.65;11.68;;;21.20;63.70;;;;;;4760346;30;20063;-83
2022/05/03 12:34:21;;;;;;;8.55;6.90;;;21.10;64.10;;;;;;4767219;30;20031;-82
2022/05/03 12:37:14;;;;;;;6.68;6.00;;;20.80;64.30;;;;;;4854268;29;20033;-80
2022/05/03 12:50:35;;;;;;;8.68;5.90;;;19.70;66.90;;;;;;5092869;23;20700;-83
2022/05/03 12:53:35;;;;;;;7.63;6.00;;;19.50;67.50;;;;;;4946356;28;20142;-86
2022/05/03 12:59:09;;;;;;;13.95;10.50;;;19.10;68.70;;;;;;4960865;28;20058;-84
2022/05/03 13:02:08;;;;;;;25.10;16.13;;;18.90;70.10;;;;;;4955892;28;20622;-84
2022/05/03 13:04:43;;;;;;;25.65;17.45;;;18.60;72.30;;;;;;4938421;28;20032;-83
2022/05/03 13:07:20;;;;;;;36.35;24.85;;;18.30;74.50;;;;;;4936229;28;20115;-82
2022/05/03 13:09:51;;;;;;;27.45;19.60;;;18.10;77.40;;;;;;4905131;29;20043;-81
2022/05/03 13:12:19;;;;;;;33.80;21.60;;;17.80;78.20;;;;;;4921699;29;20066;-84
2022/05/03 13:14:48;;;;;;;34.42;20.88;;;17.50;79.80;;;;;;4918607;29;20044;-83
2022/05/03 13:17:22;;;;;;;33.38;22.58;;;17.20;80.80;;;;;;4921335;29;20035;-83
2022/05/03 13:19:50;;;;;;;30.33;19.50;;;17.10;81.60;;;;;;4890709;29;20062;-83
2022/05/03 13:22:17;;;;;;;26.55;17.48;;;17.00;82.40;;;;;;4894959;29;20400;-83
2022/05/03 13:24:44;;;;;;;40.45;23.10;;;16.90;82.90;;;;;;4910353;29;20048;-80
2022/05/03 13:27:10;;;;;;;32.25;21.67;;;16.80;84.30;;;;;;4892353;29;20109;-80
2022/05/03 13:29:37;;;;;;;39.25;24.60;;;16.70;85.20;;;;;;4920542;29;20067;-80
2022/05/03 13:32:04;;;;;;;37.75;23.45;;;16.50;86.10;;;;;;4917683;29;20480;-82
2022/05/03 13:34:31;;;;;;;31.98;21.15;;;16.40;86.60;;;;;;4896756;28;20047;-78
2022/05/03 13:42:27;;;;;;;25.92;16.92;;;16.40;88.00;;;;;;4958895;28;20425;-78
2022/05/03 13:44:53;;;;;;;30.35;17.83;;;16.30;88.40;;;;;;4944912;28;20713;-82
2022/05/03 13:47:22;;;;;;;43.30;29.00;;;16.40;88.20;;;;;;4927037;28;20451;-83
2022/05/03 13:49:52;;;;;;;36.35;22.83;;;16.40;88.90;;;;;;4917187;28;20055;-83
2022/05/03 13:52:22;;;;;;;34.17;23.13;;;16.40;88.90;;;;;;4919953;28;20042;-83
2022/05/03 13:54:51;;;;;;;29.48;20.73;;;16.30;88.90;;;;;;4928057;28;20046;-86
2022/05/03 13:57:21;;;;;;;29.55;19.30;;;16.40;89.10;;;;;;4913267;28;20417;-85
2022/05/03 14:00:10;;;;;;;32.42;20.33;;;16.40;89.20;;;;;;4925306;28;20042;-85
2022/05/03 14:03:14;;;;;;;42.13;23.63;;;16.40;89.30;;;;;;4940286;28;20036;-85
2022/05/03 14:05:48;;;;;;;31.23;19.90;;;16.40;89.80;;;;;;4909878;28;20027;-84
2022/05/03 14:08:15;;;;;;;33.10;22.60;;;16.40;90.00;;;;;;4928339;28;20042;-83
2022/05/03 14:10:42;;;;;;;36.55;23.13;;;16.40;90.20;;;;;;4913841;28;20034;-85
2022/05/03 14:13:15;;;;;;;29.48;19.58;;;16.30;90.60;;;;;;4911981;28;20035;-85
2022/05/03 14:15:44;;;;;;;28.85;18.88;;;16.30;90.70;;;;;;4912786;28;20058;-85
2022/05/03 14:18:10;;;;;;;32.55;20.80;;;16.20;91.00;;;;;;4928199;28;20031;-80
2022/05/03 14:20:55;;;;;;;;;;;;;;;;;;;;;
2022/05/03 14:24:18;;;;;;;27.70;17.15;;;16.10;91.40;;;;;;4928599;28;20027;-82
2022/05/03 14:27:00;;;;;;;27.15;17.17;;;16.10;91.60;;;;;;4922315;28;20023;-81
2022/05/03 14:29:40;;;;;;;28.27;17.70;;;16.00;91.90;;;;;;4909694;28;20035;-82
2022/05/03 14:32:15;;;;;;;19.88;13.77;;;15.90;92.20;;;;;;4919329;28;20059;-82
2022/05/03 14:34:44;;;;;;;25.30;17.70;;;15.90;92.30;;;;;;4927307;28;20027;-82
2022/05/03 14:37:11;;;;;;;25.05;17.48;;;15.90;92.40;;;;;;4911265;28;20035;-82
2022/05/03 14:39:40;;;;;;;27.75;17.70;;;15.90;92.50;;;;;;4923899;28;20023;-82
2022/05/03 14:42:13;;;;;;;31.38;15.63;;;15.90;92.60;;;;;;4934077;28;20043;-81
2022/05/03 14:44:40;;;;;;;24.27;13.65;;;15.80;92.60;;;;;;4920273;28;20663;-84
2022/05/03 14:47:10;;;;;;;21.17;13.38;;;15.70;92.80;;;;;;4909482;28;20369;-83
2022/05/03 15:04:31;;;;;;;20.20;13.73;;;15.60;93.90;;;;;;4848436;29;20030;-83
2022/05/03 15:06:59;;;;;;;21.40;13.98;;;15.60;94.00;;;;;;4849780;28;20040;-83
2022/05/03 15:12:39;;;;;;;21.55;13.73;;;15.60;94.20;;;;;;4876937;29;20031;-84
2022/05/03 15:15:11;;;;;;;21.17;12.95;;;15.70;94.20;;;;;;4908457;29;20412;-83
2022/05/03 15:17:53;;;;;;;19.50;12.47;;;15.80;94.10;;;;;;4901479;29;20046;-89
2022/05/03 15:20:27;;;;;;;18.55;11.90;;;15.80;94.00;;;;;;4882628;29;20055;-82
2022/05/03 15:26:01;;;;;;;18.75;12.63;;;16.00;93.80;;;;;;4917921;29;20047;-85
2022/05/03 15:28:33;;;;;;;19.73;12.18;;;16.00;93.70;;;;;;4887616;29;20048;-87
2022/05/03 15:31:07;;;;;;;18.98;11.85;;;16.20;93.60;;;;;;4914993;29;20066;-87
2022/05/03 15:33:38;;;;;;;26.92;16.13;;;16.20;93.40;;;;;;4889103;29;20032;-87
2022/05/03 15:36:12;;;;;;;18.83;13.50;;;16.20;93.30;;;;;;4881576;29;20416;-87
2022/05/03 15:38:56;;;;;;;22.67;14.15;;;16.10;93.20;;;;;;4888810;29;20357;-81
2022/05/03 15:41:29;;;;;;;21.00;13.13;;;16.10;93.20;;;;;;4885953;29;20036;-87
2022/05/03 15:44:03;;;;;;;21.35;12.73;;;16.00;93.30;;;;;;4922170;29;20404;-86
2022/05/03 15:46:44;;;;;;;;;;;;;;;;;;;;;
2022/05/03 15:50:42;;;;;;;;;;;;;;;;;;;;;
2022/05/03 15:58:23;;;;;;;23.50;15.23;;;15.80;93.50;;;;;;4919002;28;20415;-80
2022/05/03 16:01:12;;;;;;;30.55;19.23;;;15.70;93.60;;;;;;4927343;28;20062;-80
2022/05/03 16:04:25;;;;;;;20.92;12.48;;;15.60;93.70;;;;;;4917317;28;20023;-78
2022/05/03 16:07:34;;;;;;;25.13;15.23;;;15.50;93.90;;;;;;4933986;28;20036;-82